This is the latest recevied weather packets stored in our database for station/object SQ9RHX-13. If no packets are shown the sender has not sent any weather packets the latest 1 day(s).
| Time | Temp. | Humidity | Pressure | Rain* | Wind** | Luminosity | Snow |
|---|---|---|---|---|---|---|---|
| 1778081404 | 25° C | 37% | 1008.7 hPa | 0 mm | - | 203 W/m² | - |
| 1778081105 | 25° C | 37% | 1008.7 hPa | 0 mm | - | 176 W/m² | - |
| 1778078405 | 25° C | 39% | 1009.1 hPa | 0 mm | - | 312 W/m² | - |
| 1778076605 | 23.33° C | 42% | 1009.6 hPa | 0 mm | - | 232 W/m² | - |
| 1778076304 | 23.89° C | 41% | 1009.6 hPa | 0 mm | - | 237 W/m² | - |
| 1778075704 | 23.89° C | 41% | 1009.6 hPa | 0 mm | - | 433 W/m² | - |
| 1778075405 | 23.33° C | 43% | 1009.6 hPa | 0 mm | - | 488 W/m² | - |
| 1778074504 | 23.33° C | 41% | 1009.8 hPa | 0 mm | - | 251 W/m² | - |
| 1778072704 | 24.44° C | 44% | 1009.7 hPa | 0 mm | - | 587 W/m² | - |
| 1778072405 | 23.89° C | 44% | 1009.6 hPa | 0 mm | - | 593 W/m² | - |
| 1778072104 | 22.78° C | 45% | 1009.7 hPa | 0 mm | - | 460 W/m² | - |
| 1778071204 | 22.78° C | 45% | 1009.9 hPa | 0 mm | - | 325 W/m² | - |
| 1778068204 | 22.78° C | 46% | 1009.7 hPa | 0 mm | - | 293 W/m² | - |
| 1778067906 | 22.22° C | 46% | 1009.7 hPa | 0 mm | - | 513 W/m² | - |
| 1778067303 | 22.22° C | 48% | 1009.9 hPa | 0 mm | - | 285 W/m² | - |
| 1778067004 | 21.67° C | 49% | 1009.8 hPa | 0 mm | - | 369 W/m² | - |
| 1778064903 | 21.11° C | 51% | 1009.9 hPa | 0 mm | - | 265 W/m² | - |
| 1778064305 | 20.56° C | 52% | 1009.9 hPa | 0 mm | - | 178 W/m² | - |
| 1778061605 | 21.67° C | 50% | 1010 hPa | 0 mm | - | 579 W/m² | - |
| 1778061304 | 21.67° C | 51% | 1009.9 hPa | 0 mm | - | 782 W/m² | - |
| 1778060704 | 21.11° C | 53% | 1009.8 hPa | 0 mm | - | 578 W/m² | - |
| 1778060403 | 21.11° C | 54% | 1009.9 hPa | 0 mm | - | 465 W/m² | - |
| 1778058904 | 20° C | 60% | 1010 hPa | 0 mm | - | 225 W/m² | - |
| 1778057104 | 20° C | 59% | 1009.6 hPa | 0 mm | - | 247 W/m² | - |
| 1778056503 | 20.56° C | 59% | 1009.7 hPa | 0 mm | - | 334 W/m² | - |
* Rain latest hour (hover to see other rain measurements)
** Current wind speed in m/s (hover to see current wind gust speed)